createdAt,value
2023-04-08T00:02:39.148Z,21.39
2023-04-08T00:07:44.104Z,21.37
2023-04-08T00:12:48.041Z,21.37
2023-04-08T00:17:50.867Z,21.36
2023-04-08T00:22:55.045Z,21.33
2023-04-08T00:27:57.855Z,21.30
2023-04-08T00:33:01.715Z,21.29
2023-04-08T00:38:08.035Z,21.30
2023-04-08T00:43:10.853Z,21.33
2023-04-08T00:48:13.720Z,21.30
2023-04-08T00:53:19.083Z,21.28
2023-04-08T00:58:21.820Z,21.27
2023-04-08T01:03:28.427Z,21.26
2023-04-08T01:08:32.659Z,21.27
2023-04-08T01:13:36.276Z,21.28
2023-04-08T01:18:39.378Z,21.32
2023-04-08T01:23:56.572Z,21.27
2023-04-08T01:29:01.771Z,21.29
2023-04-08T01:34:06.312Z,21.30
2023-04-08T01:39:09.279Z,21.28
2023-04-08T01:44:13.402Z,21.26
2023-04-08T01:49:16.294Z,21.25
2023-04-08T01:54:19.086Z,21.23
2023-04-08T01:59:23.565Z,21.21
2023-04-08T02:04:26.434Z,21.16
2023-04-08T02:09:29.485Z,21.12
2023-04-08T02:14:34.428Z,21.08
2023-04-08T02:19:38.125Z,21.03
2023-04-08T02:24:40.902Z,20.99
2023-04-08T02:29:45.105Z,20.94
2023-04-08T02:34:47.864Z,20.89
2023-04-08T02:39:50.708Z,20.86
2023-04-08T02:44:54.844Z,20.80
2023-04-08T02:49:58.867Z,20.75
2023-04-08T02:55:01.623Z,20.73
2023-04-08T03:00:07.177Z,20.69
2023-04-08T03:05:10.625Z,20.65
2023-04-08T03:10:13.466Z,20.58
2023-04-08T03:15:17.588Z,20.53
2023-04-08T03:20:20.340Z,20.48
2023-04-08T03:25:23.109Z,20.44
2023-04-08T03:30:27.512Z,20.41
2023-04-08T03:35:30.333Z,20.36
2023-04-08T03:40:33.107Z,20.31
2023-04-08T03:45:37.218Z,20.29
2023-04-08T03:50:40.216Z,20.24
2023-04-08T03:55:42.956Z,20.22
2023-04-08T04:00:47.111Z,20.17
2023-04-08T04:05:49.858Z,20.13
2023-04-08T04:10:52.611Z,20.13
2023-04-08T04:15:57.522Z,20.10
2023-04-08T04:21:00.336Z,20.07
2023-04-08T04:26:03.138Z,20.06
2023-04-08T04:31:07.350Z,20.06
2023-04-08T04:36:10.126Z,20.03
2023-04-08T04:41:13.173Z,20.01
2023-04-08T04:46:17.411Z,20.00
2023-04-08T04:51:20.585Z,19.96
2023-04-08T04:56:23.405Z,19.95
2023-04-08T05:01:28.883Z,19.92
2023-04-08T05:06:31.905Z,19.93
2023-04-08T05:11:34.815Z,19.91
2023-04-08T05:16:39.213Z,19.90
2023-04-08T05:21:42.494Z,19.87
2023-04-08T05:26:45.632Z,19.87
2023-04-08T05:31:49.774Z,19.85
2023-04-08T05:36:52.749Z,19.84
2023-04-08T05:41:55.542Z,19.84
2023-04-08T05:47:00.499Z,19.84
2023-04-08T05:52:03.703Z,19.83
2023-04-08T05:57:08.103Z,19.83
2023-04-08T06:02:13.383Z,19.82
2023-04-08T06:07:16.247Z,19.81
2023-04-08T06:12:19.222Z,19.80
2023-04-08T06:17:23.448Z,19.80
2023-04-08T06:22:26.511Z,19.81
2023-04-08T06:27:29.309Z,19.81
2023-04-08T06:32:33.519Z,19.80
2023-04-08T06:37:38.511Z,19.79
2023-04-08T06:42:44.875Z,19.81
2023-04-08T06:47:57.825Z,19.79
2023-04-08T06:53:00.730Z,19.79
2023-04-08T06:58:03.501Z,19.81
2023-04-08T07:03:07.703Z,19.76
2023-04-08T07:08:10.514Z,19.51
2023-04-08T07:13:13.276Z,17.97
2023-04-08T07:18:17.845Z,18.07
2023-04-08T07:23:20.662Z,18.76
2023-04-08T07:28:23.420Z,19.11
2023-04-08T07:33:28.321Z,19.45
2023-04-08T07:38:31.034Z,19.63
2023-04-08T07:43:34.447Z,19.75
2023-04-08T07:48:38.749Z,19.84
2023-04-08T07:53:41.570Z,19.95
2023-04-08T07:58:44.550Z,20.08
2023-04-08T08:03:49.054Z,20.16
2023-04-08T08:08:52.014Z,20.21
2023-04-08T08:13:54.850Z,20.30
2023-04-08T08:18:59.470Z,20.37
2023-04-08T08:24:02.305Z,20.37
2023-04-08T08:29:06.478Z,20.40
2023-04-08T08:34:10.709Z,20.38
2023-04-08T08:39:13.505Z,20.47
2023-04-08T08:44:16.283Z,20.51
2023-04-08T08:49:20.568Z,20.56
2023-04-08T08:54:23.319Z,20.58
2023-04-08T08:59:26.191Z,20.60
2023-04-08T09:04:30.801Z,20.64
2023-04-08T09:09:48.954Z,20.66
2023-04-08T09:14:51.890Z,20.75
2023-04-08T09:20:11.806Z,20.81
2023-04-08T09:25:24.267Z,20.81
2023-04-08T09:30:27.836Z,20.81
2023-04-08T09:35:32.122Z,20.78
2023-04-08T09:40:35.808Z,20.78
2023-04-08T09:45:38.844Z,20.78
2023-04-08T09:50:44.692Z,20.86
2023-04-08T09:55:48.269Z,20.91
2023-04-08T10:00:51.481Z,20.97
2023-04-08T10:05:56.570Z,20.99
2023-04-08T10:10:59.336Z,21.01
2023-04-08T10:16:20.796Z,21.01
2023-04-08T10:50:32.313Z,21.03
2023-04-08T10:55:35.126Z,20.75
2023-04-08T11:00:38.476Z,20.88
2023-04-08T11:05:43.676Z,20.94
2023-04-08T11:10:46.734Z,20.97
2023-04-08T11:15:49.506Z,21.05
2023-04-08T11:20:53.784Z,21.10
2023-04-08T11:25:56.705Z,21.14
2023-04-08T11:30:59.600Z,21.23
2023-04-08T11:36:04.762Z,21.22
2023-04-08T11:41:07.824Z,21.20
2023-04-08T11:46:12.569Z,21.21
2023-04-08T11:51:17.328Z,21.35
2023-04-08T11:56:20.265Z,21.38
2023-04-08T12:01:23.191Z,21.44
2023-04-08T12:06:28.378Z,21.45
2023-04-08T12:11:31.376Z,21.44
2023-04-08T12:16:34.239Z,21.45
2023-04-08T12:21:38.462Z,21.43
2023-04-08T12:26:41.434Z,21.35
2023-04-08T12:31:44.481Z,21.37
2023-04-08T12:36:49.753Z,21.36
2023-04-08T12:41:52.592Z,21.36
2023-04-08T12:46:55.696Z,21.32
2023-04-08T12:51:59.942Z,21.34
2023-04-08T12:57:02.960Z,21.34
2023-04-08T13:02:05.948Z,21.36
2023-04-08T13:07:10.306Z,21.36
2023-04-08T13:12:13.151Z,21.35
2023-04-08T13:17:16.343Z,21.32
2023-04-08T13:22:20.723Z,21.32
2023-04-08T13:27:23.541Z,21.32
2023-04-08T13:32:26.433Z,21.32
2023-04-08T13:37:30.617Z,21.36
2023-04-08T13:42:33.382Z,21.38
2023-04-08T13:47:38.083Z,21.39
2023-04-08T13:52:42.392Z,21.44
2023-04-08T13:57:45.190Z,21.43
2023-04-08T14:02:48.115Z,21.42
2023-04-08T14:07:52.359Z,21.35
2023-04-08T14:12:55.577Z,21.28
2023-04-08T14:17:58.405Z,21.26
2023-04-08T14:23:02.550Z,21.28
2023-04-08T14:28:06.304Z,21.22
2023-04-08T14:33:09.223Z,21.20
2023-04-08T14:38:13.548Z,21.28
2023-04-08T14:43:16.270Z,21.57
2023-04-08T14:48:19.064Z,21.65
2023-04-08T14:53:23.378Z,21.84
2023-04-08T14:58:26.248Z,22.27
2023-04-08T15:03:29.219Z,22.12
2023-04-08T15:08:34.889Z,22.10
2023-04-08T15:13:37.752Z,22.10
2023-04-08T15:18:41.056Z,22.34
2023-04-08T15:23:45.826Z,22.21
2023-04-08T15:28:48.746Z,22.19
2023-04-08T15:33:52.295Z,22.20
2023-04-08T15:38:56.813Z,22.35
2023-04-08T15:43:59.655Z,22.31
2023-04-08T15:49:02.406Z,22.32
2023-04-08T15:54:06.784Z,22.26
2023-04-08T15:59:09.525Z,22.20
2023-04-08T16:04:12.715Z,22.85
2023-04-08T16:09:18.682Z,23.17
2023-04-08T16:14:21.802Z,23.36
2023-04-08T16:19:24.614Z,23.52
2023-04-08T16:24:28.838Z,23.57
2023-04-08T16:29:32.641Z,23.26
2023-04-08T16:34:36.056Z,23.04
2023-04-08T16:39:40.396Z,23.32
2023-04-08T16:44:43.189Z,23.20
2023-04-08T16:49:45.947Z,22.91
2023-04-08T16:54:50.111Z,22.72
2023-04-08T16:59:53.117Z,22.61
2023-04-08T17:04:55.897Z,22.65
2023-04-08T17:10:00.326Z,22.63
2023-04-08T17:15:03.307Z,22.55
2023-04-08T17:20:07.390Z,22.51
2023-04-08T17:25:12.855Z,22.37
2023-04-08T17:30:15.656Z,22.23
2023-04-08T17:35:18.604Z,22.11
2023-04-08T17:40:22.836Z,22.02
2023-04-08T17:45:25.828Z,21.95
2023-04-08T17:50:28.577Z,21.89
2023-04-08T17:55:33.205Z,21.84
2023-04-08T18:00:36.267Z,21.76
2023-04-08T18:05:39.091Z,21.74
2023-04-08T18:10:43.672Z,21.72
2023-04-08T18:15:47.049Z,21.68
2023-04-08T18:20:49.776Z,21.63
2023-04-08T18:25:54.001Z,21.63
2023-04-08T18:30:56.905Z,21.60
2023-04-08T18:36:07.000Z,21.62
2023-04-08T18:41:11.529Z,21.61
2023-04-08T18:46:14.373Z,21.59
2023-04-08T18:51:17.687Z,21.58
2023-04-08T18:56:22.128Z,21.63
2023-04-08T19:01:25.029Z,21.64
2023-04-08T19:06:28.593Z,21.64
2023-04-08T19:11:32.818Z,21.64
2023-04-08T19:16:35.697Z,21.64
2023-04-08T19:21:38.541Z,21.64
2023-04-08T19:26:42.711Z,21.64
2023-04-08T19:31:45.674Z,21.65
2023-04-08T19:36:48.815Z,21.67
2023-04-08T19:41:52.955Z,21.68
2023-04-08T19:46:57.665Z,21.66
2023-04-08T19:52:01.167Z,21.65
2023-04-08T19:57:08.110Z,21.75
2023-04-08T20:02:10.957Z,21.70
2023-04-08T20:07:13.846Z,21.72
2023-04-08T20:12:18.125Z,21.68
2023-04-08T20:17:21.681Z,21.73
2023-04-08T20:22:24.570Z,21.66
2023-04-08T20:27:28.724Z,21.76
2023-04-08T20:32:31.588Z,21.73
2023-04-08T20:37:34.488Z,21.71
2023-04-08T20:42:38.662Z,21.77
2023-04-08T20:47:41.453Z,21.78
2023-04-08T20:52:44.262Z,21.76
2023-04-08T20:57:48.452Z,21.77
2023-04-08T21:02:51.560Z,21.75
2023-04-08T21:07:54.600Z,21.80
2023-04-08T21:12:59.917Z,21.82
2023-04-08T21:18:02.835Z,21.77
2023-04-08T21:23:07.102Z,21.77
2023-04-08T21:28:11.210Z,21.85
2023-04-08T21:33:14.408Z,21.82
2023-04-08T21:38:17.223Z,21.85
2023-04-08T21:43:21.843Z,21.86
2023-04-08T21:48:24.807Z,21.80
2023-04-08T21:53:27.636Z,21.88
2023-04-08T21:58:31.710Z,21.89
2023-04-08T22:03:34.643Z,21.93
2023-04-08T22:08:37.474Z,21.93
2023-04-08T22:13:41.619Z,21.98
2023-04-08T22:18:44.383Z,21.98
2023-04-08T22:23:47.101Z,21.94
2023-04-08T22:28:51.539Z,21.96
2023-04-08T22:33:54.663Z,21.98
2023-04-08T22:38:57.442Z,21.98
2023-04-08T22:44:01.598Z,22.02
2023-04-08T22:49:04.395Z,21.99
2023-04-08T22:54:07.200Z,21.99
2023-04-08T22:59:11.369Z,22.00
2023-04-08T23:04:14.202Z,21.99
2023-04-08T23:09:17.092Z,22.02
2023-04-08T23:14:21.237Z,22.02
2023-04-08T23:19:24.009Z,22.02
2023-04-08T23:24:26.780Z,22.02
2023-04-08T23:29:31.458Z,22.02
2023-04-08T23:34:36.299Z,22.05
2023-04-08T23:39:39.280Z,22.04
2023-04-08T23:44:43.391Z,22.03
2023-04-08T23:49:46.175Z,22.03
2023-04-08T23:54:50.788Z,22.08
2023-04-08T23:59:54.937Z,22.04
